sensor_id;sensor_type;location;lat;lon;timestamp;pressure;altitude;pressure_sealevel;temperature;humidity
11682;BME280;5897;42.640;23.310;2023-12-20T00:00:09;94241.84;;;2.11;100.00
11682;BME280;5897;42.640;23.310;2023-12-20T00:02:37;94249.22;;;1.88;100.00
11682;BME280;5897;42.640;23.310;2023-12-20T00:05:10;94240.19;;;1.63;100.00
11682;BME280;5897;42.640;23.310;2023-12-20T00:07:36;94237.81;;;1.88;100.00
11682;BME280;5897;42.640;23.310;2023-12-20T00:10:03;94225.56;;;1.83;100.00
11682;BME280;5897;42.640;23.310;2023-12-20T00:12:36;94228.75;;;1.96;100.00
11682;BME280;5897;42.640;23.310;2023-12-20T00:15:07;94239.31;;;1.85;100.00
11682;BME280;5897;42.640;23.310;2023-12-20T00:17:36;94222.22;;;1.90;100.00
11682;BME280;5897;42.640;23.310;2023-12-20T00:20:09;94221.47;;;1.93;100.00
11682;BME280;5897;42.640;23.310;2023-12-20T00:22:44;94211.19;;;1.88;100.00
11682;BME280;5897;42.640;23.310;2023-12-20T00:25:10;94218.00;;;1.85;100.00
11682;BME280;5897;42.640;23.310;2023-12-20T00:27:47;94178.63;;;1.68;100.00
11682;BME280;5897;42.640;23.310;2023-12-20T00:30:19;94210.97;;;2.07;100.00
11682;BME280;5897;42.640;23.310;2023-12-20T00:32:51;94211.03;;;2.14;100.00
11682;BME280;5897;42.640;23.310;2023-12-20T00:35:21;94204.03;;;1.99;100.00
11682;BME280;5897;42.640;23.310;2023-12-20T00:37:47;94189.59;;;2.00;100.00
11682;BME280;5897;42.640;23.310;2023-12-20T00:40:14;94202.97;;;2.03;100.00
11682;BME280;5897;42.640;23.310;2023-12-20T00:42:41;94191.97;;;2.08;100.00
11682;BME280;5897;42.640;23.310;2023-12-20T00:45:09;94191.69;;;2.17;100.00
11682;BME280;5897;42.640;23.310;2023-12-20T00:47:37;94192.25;;;1.96;100.00
11682;BME280;5897;42.640;23.310;2023-12-20T00:50:09;94185.22;;;1.81;100.00
11682;BME280;5897;42.640;23.310;2023-12-20T00:52:36;94174.56;;;1.81;100.00
11682;BME280;5897;42.640;23.310;2023-12-20T00:55:06;94185.91;;;1.75;100.00
11682;BME280;5897;42.640;23.310;2023-12-20T00:57:33;94189.31;;;1.72;100.00
11682;BME280;5897;42.640;23.310;2023-12-20T00:59:59;94183.31;;;1.82;100.00
11682;BME280;5897;42.640;23.310;2023-12-20T01:02:27;94171.97;;;1.88;100.00
11682;BME280;5897;42.640;23.310;2023-12-20T01:05:02;94173.19;;;1.98;100.00
11682;BME280;5897;42.640;23.310;2023-12-20T01:07:32;94170.09;;;1.89;100.00
11682;BME280;5897;42.640;23.310;2023-12-20T01:09:59;94160.88;;;1.83;100.00
11682;BME280;5897;42.640;23.310;2023-12-20T01:12:26;94163.84;;;1.74;100.00
11682;BME280;5897;42.640;23.310;2023-12-20T01:14:55;94165.63;;;1.63;100.00
11682;BME280;5897;42.640;23.310;2023-12-20T01:17:23;94168.75;;;1.72;100.00
11682;BME280;5897;42.640;23.310;2023-12-20T01:19:55;94165.81;;;1.84;100.00
11682;BME280;5897;42.640;23.310;2023-12-20T01:22:28;94158.38;;;1.64;100.00
11682;BME280;5897;42.640;23.310;2023-12-20T01:24:55;94154.19;;;1.63;100.00
11682;BME280;5897;42.640;23.310;2023-12-20T01:27:25;94141.09;;;1.47;100.00
11682;BME280;5897;42.640;23.310;2023-12-20T01:29:56;94144.94;;;1.50;100.00
11682;BME280;5897;42.640;23.310;2023-12-20T01:32:23;94141.91;;;1.51;100.00
11682;BME280;5897;42.640;23.310;2023-12-20T01:34:51;94142.22;;;1.46;100.00
11682;BME280;5897;42.640;23.310;2023-12-20T01:37:17;94116.38;;;1.47;100.00
11682;BME280;5897;42.640;23.310;2023-12-20T01:39:45;94132.19;;;1.66;100.00
11682;BME280;5897;42.640;23.310;2023-12-20T01:42:15;94135.72;;;1.77;100.00
11682;BME280;5897;42.640;23.310;2023-12-20T01:44:45;94126.25;;;1.83;100.00
11682;BME280;5897;42.640;23.310;2023-12-20T01:47:17;94123.31;;;1.91;100.00
11682;BME280;5897;42.640;23.310;2023-12-20T01:49:47;94114.50;;;1.87;100.00
11682;BME280;5897;42.640;23.310;2023-12-20T01:52:16;94111.50;;;1.92;100.00
11682;BME280;5897;42.640;23.310;2023-12-20T01:54:46;94104.72;;;1.98;100.00
11682;BME280;5897;42.640;23.310;2023-12-20T01:57:17;94104.13;;;1.75;100.00
11682;BME280;5897;42.640;23.310;2023-12-20T01:59:47;94103.38;;;1.78;100.00
11682;BME280;5897;42.640;23.310;2023-12-20T02:02:16;94082.03;;;1.75;100.00
11682;BME280;5897;42.640;23.310;2023-12-20T02:04:47;94101.56;;;1.89;100.00
11682;BME280;5897;42.640;23.310;2023-12-20T02:07:20;94102.13;;;1.69;100.00
11682;BME280;5897;42.640;23.310;2023-12-20T02:09:52;94074.56;;;1.47;100.00
11682;BME280;5897;42.640;23.310;2023-12-20T02:12:19;94092.56;;;1.61;100.00
11682;BME280;5897;42.640;23.310;2023-12-20T02:14:46;94092.69;;;1.38;100.00
11682;BME280;5897;42.640;23.310;2023-12-20T02:17:13;94087.78;;;1.40;100.00
11682;BME280;5897;42.640;23.310;2023-12-20T02:19:45;94083.41;;;1.58;100.00
11682;BME280;5897;42.640;23.310;2023-12-20T02:22:14;94085.31;;;1.61;100.00
11682;BME280;5897;42.640;23.310;2023-12-20T02:24:41;94069.22;;;1.47;100.00
11682;BME280;5897;42.640;23.310;2023-12-20T02:27:15;94081.47;;;1.55;100.00
11682;BME280;5897;42.640;23.310;2023-12-20T02:29:52;94080.00;;;1.61;100.00
11682;BME280;5897;42.640;23.310;2023-12-20T02:32:20;94064.75;;;1.55;100.00
11682;BME280;5897;42.640;23.310;2023-12-20T02:34:51;94067.94;;;1.71;100.00
11682;BME280;5897;42.640;23.310;2023-12-20T02:37:19;94060.69;;;1.71;100.00
11682;BME280;5897;42.640;23.310;2023-12-20T02:39:49;94050.31;;;1.59;100.00
11682;BME280;5897;42.640;23.310;2023-12-20T02:42:15;94050.78;;;1.65;100.00
11682;BME280;5897;42.640;23.310;2023-12-20T02:44:42;94051.53;;;1.69;100.00
11682;BME280;5897;42.640;23.310;2023-12-20T02:47:11;94053.03;;;1.66;100.00
11682;BME280;5897;42.640;23.310;2023-12-20T02:49:37;94053.47;;;1.68;100.00
11682;BME280;5897;42.640;23.310;2023-12-20T02:52:07;94043.19;;;1.70;100.00
11682;BME280;5897;42.640;23.310;2023-12-20T02:54:45;94035.94;;;1.67;100.00
11682;BME280;5897;42.640;23.310;2023-12-20T02:57:14;94055.38;;;1.71;100.00
11682;BME280;5897;42.640;23.310;2023-12-20T02:59:44;94050.81;;;1.68;100.00
11682;BME280;5897;42.640;23.310;2023-12-20T03:02:13;94058.03;;;1.71;100.00
11682;BME280;5897;42.640;23.310;2023-12-20T03:04:40;94051.97;;;1.71;100.00
11682;BME280;5897;42.640;23.310;2023-12-20T03:07:10;94053.09;;;1.73;100.00
11682;BME280;5897;42.640;23.310;2023-12-20T03:09:37;94040.00;;;1.54;100.00
11682;BME280;5897;42.640;23.310;2023-12-20T03:12:05;94048.03;;;1.58;100.00
11682;BME280;5897;42.640;23.310;2023-12-20T03:14:32;94049.53;;;1.59;100.00
11682;BME280;5897;42.640;23.310;2023-12-20T03:16:59;94037.28;;;1.47;100.00
11682;BME280;5897;42.640;23.310;2023-12-20T03:19:25;94047.94;;;1.47;100.00
11682;BME280;5897;42.640;23.310;2023-12-20T03:21:52;94043.88;;;1.60;100.00
11682;BME280;5897;42.640;23.310;2023-12-20T03:24:19;94040.75;;;1.51;100.00
11682;BME280;5897;42.640;23.310;2023-12-20T03:26:45;94038.13;;;1.55;100.00
11682;BME280;5897;42.640;23.310;2023-12-20T03:29:21;94032.13;;;1.65;100.00
11682;BME280;5897;42.640;23.310;2023-12-20T03:31:47;94035.88;;;1.60;100.00
11682;BME280;5897;42.640;23.310;2023-12-20T03:34:19;94019.84;;;1.53;100.00
11682;BME280;5897;42.640;23.310;2023-12-20T03:36:45;94022.59;;;1.64;100.00
11682;BME280;5897;42.640;23.310;2023-12-20T03:39:15;94017.53;;;1.52;100.00
11682;BME280;5897;42.640;23.310;2023-12-20T03:41:44;94015.28;;;1.54;100.00
11682;BME280;5897;42.640;23.310;2023-12-20T03:44:14;94012.16;;;1.45;100.00
11682;BME280;5897;42.640;23.310;2023-12-20T03:46:49;94032.78;;;1.51;100.00
11682;BME280;5897;42.640;23.310;2023-12-20T03:49:17;94021.28;;;1.44;100.00
11682;BME280;5897;42.640;23.310;2023-12-20T03:51:49;94025.16;;;1.53;100.00
11682;BME280;5897;42.640;23.310;2023-12-20T03:54:15;94021.56;;;1.35;100.00
11682;BME280;5897;42.640;23.310;2023-12-20T03:56:42;94020.75;;;1.28;100.00
11682;BME280;5897;42.640;23.310;2023-12-20T03:59:11;94016.34;;;1.09;100.00
11682;BME280;5897;42.640;23.310;2023-12-20T04:01:38;94023.16;;;1.07;100.00
11682;BME280;5897;42.640;23.310;2023-12-20T04:04:12;94015.75;;;1.23;100.00
11682;BME280;5897;42.640;23.310;2023-12-20T04:06:42;94016.09;;;1.21;100.00
11682;BME280;5897;42.640;23.310;2023-12-20T04:09:09;93969.06;;;0.92;100.00
11682;BME280;5897;42.640;23.310;2023-12-20T04:11:40;94009.25;;;1.20;100.00
11682;BME280;5897;42.640;23.310;2023-12-20T04:14:09;94000.13;;;1.21;100.00
11682;BME280;5897;42.640;23.310;2023-12-20T04:16:35;93993.75;;;1.26;100.00
11682;BME280;5897;42.640;23.310;2023-12-20T04:19:02;93993.72;;;1.22;100.00
11682;BME280;5897;42.640;23.310;2023-12-20T04:21:33;93994.13;;;1.28;100.00
11682;BME280;5897;42.640;23.310;2023-12-20T04:23:59;93990.00;;;1.34;100.00
11682;BME280;5897;42.640;23.310;2023-12-20T04:26:26;93977.78;;;1.26;100.00
11682;BME280;5897;42.640;23.310;2023-12-20T04:28:52;93986.19;;;1.31;100.00
11682;BME280;5897;42.640;23.310;2023-12-20T04:31:22;93988.91;;;1.42;100.00
11682;BME280;5897;42.640;23.310;2023-12-20T04:33:49;93986.19;;;1.31;100.00
11682;BME280;5897;42.640;23.310;2023-12-20T04:36:15;93980.25;;;1.08;100.00
11682;BME280;5897;42.640;23.310;2023-12-20T04:38:43;93977.94;;;1.07;100.00
11682;BME280;5897;42.640;23.310;2023-12-20T04:41:10;93972.25;;;1.05;100.00
11682;BME280;5897;42.640;23.310;2023-12-20T04:43:44;93975.13;;;0.89;100.00
11682;BME280;5897;42.640;23.310;2023-12-20T04:46:14;93976.66;;;0.90;100.00
11682;BME280;5897;42.640;23.310;2023-12-20T04:48:43;93962.66;;;0.97;100.00
11682;BME280;5897;42.640;23.310;2023-12-20T04:51:12;93971.25;;;1.20;100.00
11682;BME280;5897;42.640;23.310;2023-12-20T04:53:47;93963.22;;;1.16;100.00
11682;BME280;5897;42.640;23.310;2023-12-20T04:56:20;93970.84;;;1.18;100.00
11682;BME280;5897;42.640;23.310;2023-12-20T04:58:51;93961.69;;;1.15;100.00
11682;BME280;5897;42.640;23.310;2023-12-20T05:01:19;93965.19;;;1.23;100.00
11682;BME280;5897;42.640;23.310;2023-12-20T05:03:48;93944.53;;;1.09;100.00
11682;BME280;5897;42.640;23.310;2023-12-20T05:06:15;93955.00;;;1.28;100.00
11682;BME280;5897;42.640;23.310;2023-12-20T05:08:45;93953.31;;;1.13;100.00
11682;BME280;5897;42.640;23.310;2023-12-20T05:11:12;93944.47;;;1.02;100.00
11682;BME280;5897;42.640;23.310;2023-12-20T05:13:43;93954.56;;;1.26;100.00
11682;BME280;5897;42.640;23.310;2023-12-20T05:16:15;93943.94;;;1.26;100.00
11682;BME280;5897;42.640;23.310;2023-12-20T05:18:48;93961.16;;;1.39;100.00
11682;BME280;5897;42.640;23.310;2023-12-20T05:21:23;93955.75;;;1.32;100.00
11682;BME280;5897;42.640;23.310;2023-12-20T05:23:54;93945.13;;;1.32;100.00
11682;BME280;5897;42.640;23.310;2023-12-20T05:26:23;93919.91;;;1.16;100.00
11682;BME280;5897;42.640;23.310;2023-12-20T05:28:49;93943.25;;;1.33;100.00
11682;BME280;5897;42.640;23.310;2023-12-20T05:31:19;93944.69;;;1.23;100.00
11682;BME280;5897;42.640;23.310;2023-12-20T05:33:47;93935.59;;;1.28;100.00
11682;BME280;5897;42.640;23.310;2023-12-20T05:36:20;93943.19;;;1.26;100.00
11682;BME280;5897;42.640;23.310;2023-12-20T05:38:49;93907.22;;;0.99;100.00
11682;BME280;5897;42.640;23.310;2023-12-20T05:41:20;93925.94;;;1.13;100.00
11682;BME280;5897;42.640;23.310;2023-12-20T05:43:48;93933.22;;;1.16;100.00
11682;BME280;5897;42.640;23.310;2023-12-20T05:46:18;93930.19;;;1.17;100.00
11682;BME280;5897;42.640;23.310;2023-12-20T05:48:44;93936.28;;;1.21;100.00
11682;BME280;5897;42.640;23.310;2023-12-20T05:51:11;93927.44;;;1.10;100.00
11682;BME280;5897;42.640;23.310;2023-12-20T05:53:40;93933.44;;;1.00;100.00
11682;BME280;5897;42.640;23.310;2023-12-20T05:56:07;93918.34;;;1.11;100.00
11682;BME280;5897;42.640;23.310;2023-12-20T05:58:41;93920.22;;;1.07;100.00
11682;BME280;5897;42.640;23.310;2023-12-20T06:01:09;93917.41;;;0.93;100.00
11682;BME280;5897;42.640;23.310;2023-12-20T06:03:41;93914.75;;;0.93;100.00
11682;BME280;5897;42.640;23.310;2023-12-20T06:06:15;93896.81;;;0.83;100.00
11682;BME280;5897;42.640;23.310;2023-12-20T06:08:45;93889.97;;;0.82;100.00
11682;BME280;5897;42.640;23.310;2023-12-20T06:11:12;93897.25;;;0.92;100.00
11682;BME280;5897;42.640;23.310;2023-12-20T06:13:41;93919.66;;;0.91;100.00
11682;BME280;5897;42.640;23.310;2023-12-20T06:16:13;93886.50;;;0.78;100.00
11682;BME280;5897;42.640;23.310;2023-12-20T06:18:40;93922.28;;;0.88;100.00
11682;BME280;5897;42.640;23.310;2023-12-20T06:21:08;93923.50;;;0.94;100.00
11682;BME280;5897;42.640;23.310;2023-12-20T06:23:38;93915.88;;;0.92;100.00
11682;BME280;5897;42.640;23.310;2023-12-20T06:26:04;93922.97;;;0.81;100.00
11682;BME280;5897;42.640;23.310;2023-12-20T06:28:31;93914.38;;;0.95;100.00
11682;BME280;5897;42.640;23.310;2023-12-20T06:31:00;93912.66;;;0.76;100.00
11682;BME280;5897;42.640;23.310;2023-12-20T06:33:28;93912.88;;;0.97;100.00
11682;BME280;5897;42.640;23.310;2023-12-20T06:35:56;93909.59;;;1.11;100.00
11682;BME280;5897;42.640;23.310;2023-12-20T06:38:25;93925.31;;;1.26;100.00
11682;BME280;5897;42.640;23.310;2023-12-20T06:40:52;93917.00;;;1.31;100.00
11682;BME280;5897;42.640;23.310;2023-12-20T06:43:28;93916.06;;;1.13;100.00
11682;BME280;5897;42.640;23.310;2023-12-20T06:45:55;93915.03;;;1.25;100.00
11682;BME280;5897;42.640;23.310;2023-12-20T06:48:23;93903.00;;;1.41;100.00
11682;BME280;5897;42.640;23.310;2023-12-20T06:50:55;93900.00;;;1.46;100.00
11682;BME280;5897;42.640;23.310;2023-12-20T06:53:28;93894.28;;;1.44;100.00
11682;BME280;5897;42.640;23.310;2023-12-20T06:55:54;93891.69;;;1.51;100.00
11682;BME280;5897;42.640;23.310;2023-12-20T06:58:23;93897.63;;;1.88;100.00
11682;BME280;5897;42.640;23.310;2023-12-20T07:00:55;93893.81;;;1.93;100.00
11682;BME280;5897;42.640;23.310;2023-12-20T07:03:26;93890.94;;;2.22;100.00
11682;BME280;5897;42.640;23.310;2023-12-20T07:05:54;93883.94;;;3.03;100.00
11682;BME280;5897;42.640;23.310;2023-12-20T07:08:23;93883.94;;;3.66;100.00
11682;BME280;5897;42.640;23.310;2023-12-20T07:10:50;93883.56;;;3.57;100.00
11682;BME280;5897;42.640;23.310;2023-12-20T07:13:33;93889.31;;;3.38;100.00
11682;BME280;5897;42.640;23.310;2023-12-20T07:16:08;93873.28;;;3.31;100.00
11682;BME280;5897;42.640;23.310;2023-12-20T07:18:41;93879.75;;;3.41;97.66
11682;BME280;5897;42.640;23.310;2023-12-20T07:21:13;93865.25;;;3.03;94.83
11682;BME280;5897;42.640;23.310;2023-12-20T07:23:41;93880.13;;;3.32;93.57
11682;BME280;5897;42.640;23.310;2023-12-20T07:26:10;93883.56;;;3.36;92.57
11682;BME280;5897;42.640;23.310;2023-12-20T07:28:41;93874.44;;;3.23;92.03
11682;BME280;5897;42.640;23.310;2023-12-20T07:31:07;93872.91;;;3.29;92.52
11682;BME280;5897;42.640;23.310;2023-12-20T07:33:37;93862.97;;;3.54;92.39
11682;BME280;5897;42.640;23.310;2023-12-20T07:36:12;93873.28;;;3.52;90.98
11682;BME280;5897;42.640;23.310;2023-12-20T07:38:40;93876.69;;;3.49;90.86
11682;BME280;5897;42.640;23.310;2023-12-20T07:41:13;93874.44;;;3.44;91.20
11682;BME280;5897;42.640;23.310;2023-12-20T07:43:41;93873.66;;;3.47;91.28
11682;BME280;5897;42.640;23.310;2023-12-20T07:46:12;93856.88;;;3.36;91.37
11682;BME280;5897;42.640;23.310;2023-12-20T07:48:42;93873.66;;;3.47;91.75
11682;BME280;5897;42.640;23.310;2023-12-20T07:51:13;93865.28;;;3.38;91.95
11682;BME280;5897;42.640;23.310;2023-12-20T07:53:42;93869.84;;;3.45;92.09
11682;BME280;5897;42.640;23.310;2023-12-20T07:56:17;93863.72;;;3.41;91.52
11682;BME280;5897;42.640;23.310;2023-12-20T07:58:47;93866.03;;;3.53;90.70
11682;BME280;5897;42.640;23.310;2023-12-20T08:01:16;93863.75;;;3.51;90.69
11682;BME280;5897;42.640;23.310;2023-12-20T08:03:49;93864.13;;;3.46;90.99
11682;BME280;5897;42.640;23.310;2023-12-20T08:06:17;93860.69;;;3.49;91.51
11682;BME280;5897;42.640;23.310;2023-12-20T08:08:48;93854.56;;;3.66;92.07
11682;BME280;5897;42.640;23.310;2023-12-20T08:11:15;93861.72;;;4.04;92.18
11682;BME280;5897;42.640;23.310;2023-12-20T08:13:42;93856.66;;;4.41;91.28
11682;BME280;5897;42.640;23.310;2023-12-20T08:16:13;93849.72;;;4.54;89.29
11682;BME280;5897;42.640;23.310;2023-12-20T08:18:42;93856.44;;;4.83;88.62
11682;BME280;5897;42.640;23.310;2023-12-20T08:21:09;93856.34;;;5.01;86.44
11682;BME280;5897;42.640;23.310;2023-12-20T08:23:43;93849.41;;;5.07;85.56
11682;BME280;5897;42.640;23.310;2023-12-20T08:26:13;93852.13;;;5.00;84.80
11682;BME280;5897;42.640;23.310;2023-12-20T08:28:39;93855.22;;;4.91;84.70
11682;BME280;5897;42.640;23.310;2023-12-20T08:31:13;93832.75;;;4.78;85.84
11682;BME280;5897;42.640;23.310;2023-12-20T08:33:43;93851.97;;;4.59;86.32
11682;BME280;5897;42.640;23.310;2023-12-20T08:36:11;93839.06;;;4.40;86.27
11682;BME280;5897;42.640;23.310;2023-12-20T08:38:47;93838.75;;;4.28;87.71
11682;BME280;5897;42.640;23.310;2023-12-20T08:41:16;93818.91;;;4.25;88.44
11682;BME280;5897;42.640;23.310;2023-12-20T08:43:43;93800.97;;;4.15;88.49
11682;BME280;5897;42.640;23.310;2023-12-20T08:46:14;93817.06;;;4.08;89.24
11682;BME280;5897;42.640;23.310;2023-12-20T08:48:41;93818.63;;;3.95;89.37
11682;BME280;5897;42.640;23.310;2023-12-20T08:51:08;93821.28;;;3.92;89.51
11682;BME280;5897;42.640;23.310;2023-12-20T08:53:39;93825.47;;;4.00;90.11
11682;BME280;5897;42.640;23.310;2023-12-20T08:56:11;93810.94;;;4.04;90.58
11682;BME280;5897;42.640;23.310;2023-12-20T08:58:38;93810.56;;;4.09;90.83
11682;BME280;5897;42.640;23.310;2023-12-20T09:01:07;93801.38;;;4.10;91.02
11682;BME280;5897;42.640;23.310;2023-12-20T09:03:36;93812.47;;;4.12;91.10
11682;BME280;5897;42.640;23.310;2023-12-20T09:06:03;93786.09;;;4.14;90.88
11682;BME280;5897;42.640;23.310;2023-12-20T09:08:33;93790.25;;;4.22;91.04
11682;BME280;5897;42.640;23.310;2023-12-20T09:11:06;93774.97;;;4.23;90.75
11682;BME280;5897;42.640;23.310;2023-12-20T09:13:39;93760.53;;;4.10;89.88
11682;BME280;5897;42.640;23.310;2023-12-20T09:16:09;93770.47;;;4.06;91.03
11682;BME280;5897;42.640;23.310;2023-12-20T09:18:41;93747.56;;;4.05;90.49
11682;BME280;5897;42.640;23.310;2023-12-20T09:21:08;93731.56;;;4.01;91.60
11682;BME280;5897;42.640;23.310;2023-12-20T09:23:38;93723.88;;;4.07;91.81
11682;BME280;5897;42.640;23.310;2023-12-20T09:26:09;93737.63;;;4.05;92.87
11682;BME280;5897;42.640;23.310;2023-12-20T09:28:39;93724.59;;;4.18;92.94
11682;BME280;5897;42.640;23.310;2023-12-20T09:31:07;93724.91;;;4.30;91.94
11682;BME280;5897;42.640;23.310;2023-12-20T09:33:37;93717.59;;;4.34;92.11
11682;BME280;5897;42.640;23.310;2023-12-20T09:36:04;93708.75;;;4.44;91.67
11682;BME280;5897;42.640;23.310;2023-12-20T09:38:32;93713.75;;;4.42;91.17
11682;BME280;5897;42.640;23.310;2023-12-20T09:41:01;93707.91;;;4.58;91.00
11682;BME280;5897;42.640;23.310;2023-12-20T09:43:41;93705.56;;;4.67;89.89
11682;BME280;5897;42.640;23.310;2023-12-20T09:46:10;93693.63;;;4.75;90.21
11682;BME280;5897;42.640;23.310;2023-12-20T09:48:39;93680.13;;;4.92;91.50
11682;BME280;5897;42.640;23.310;2023-12-20T09:51:08;93691.94;;;4.95;92.65
11682;BME280;5897;42.640;23.310;2023-12-20T09:53:44;93694.53;;;5.05;91.29
11682;BME280;5897;42.640;23.310;2023-12-20T09:56:19;93675.28;;;5.17;89.94
11682;BME280;5897;42.640;23.310;2023-12-20T09:58:48;93671.88;;;5.13;89.51
11682;BME280;5897;42.640;23.310;2023-12-20T10:01:21;93693.22;;;5.20;88.57
11682;BME280;5897;42.640;23.310;2023-12-20T10:03:57;93665.50;;;5.37;87.76
11682;BME280;5897;42.640;23.310;2023-12-20T10:06:41;93682.63;;;5.47;87.17
11682;BME280;5897;42.640;23.310;2023-12-20T10:09:13;93667.50;;;5.63;87.21
11682;BME280;5897;42.640;23.310;2023-12-20T10:11:47;93667.75;;;5.76;86.70
11682;BME280;5897;42.640;23.310;2023-12-20T10:14:16;93661.69;;;6.02;86.50
11682;BME280;5897;42.640;23.310;2023-12-20T10:16:43;93644.06;;;6.54;85.83
11682;BME280;5897;42.640;23.310;2023-12-20T10:19:16;93650.50;;;7.06;82.61
11682;BME280;5897;42.640;23.310;2023-12-20T10:21:43;93648.41;;;7.36;78.86
11682;BME280;5897;42.640;23.310;2023-12-20T10:24:17;93641.84;;;7.76;78.40
11682;BME280;5897;42.640;23.310;2023-12-20T10:27:01;93635.59;;;8.38;76.11
11682;BME280;5897;42.640;23.310;2023-12-20T10:29:33;93642.22;;;8.33;72.90
11682;BME280;5897;42.640;23.310;2023-12-20T10:32:25;93621.06;;;8.51;71.76
11682;BME280;5897;42.640;23.310;2023-12-20T10:34:55;93616.50;;;8.80;73.00
11682;BME280;5897;42.640;23.310;2023-12-20T10:37:22;93591.38;;;9.15;70.35
11682;BME280;5897;42.640;23.310;2023-12-20T10:39:54;93607.47;;;9.88;67.51
11682;BME280;5897;42.640;23.310;2023-12-20T10:42:25;93614.44;;;10.39;64.07
11682;BME280;5897;42.640;23.310;2023-12-20T10:44:59;93598.63;;;10.88;63.22
11682;BME280;5897;42.640;23.310;2023-12-20T10:47:32;93583.56;;;11.33;59.85
11682;BME280;5897;42.640;23.310;2023-12-20T10:50:05;93602.31;;;11.28;59.17
11682;BME280;5897;42.640;23.310;2023-12-20T10:52:36;93554.59;;;11.55;59.72
11682;BME280;5897;42.640;23.310;2023-12-20T10:55:10;93582.59;;;11.82;58.17
11682;BME280;5897;42.640;23.310;2023-12-20T10:57:40;93575.25;;;12.44;56.60
11682;BME280;5897;42.640;23.310;2023-12-20T11:00:22;93572.66;;;12.80;54.54
11682;BME280;5897;42.640;23.310;2023-12-20T11:02:50;93571.22;;;13.15;53.21
11682;BME280;5897;42.640;23.310;2023-12-20T11:05:26;93562.66;;;13.34;51.56
11682;BME280;5897;42.640;23.310;2023-12-20T11:07:59;93559.78;;;13.74;50.17
11682;BME280;5897;42.640;23.310;2023-12-20T11:10:40;93543.00;;;13.93;48.08
11682;BME280;5897;42.640;23.310;2023-12-20T11:13:16;93544.25;;;14.43;47.46
11682;BME280;5897;42.640;23.310;2023-12-20T11:15:47;93534.25;;;14.49;46.79
11682;BME280;5897;42.640;23.310;2023-12-20T11:18:19;93502.44;;;14.64;46.51
11682;BME280;5897;42.640;23.310;2023-12-20T11:20:51;93535.88;;;15.26;44.99
11682;BME280;5897;42.640;23.310;2023-12-20T11:23:20;93532.25;;;15.05;44.29
11682;BME280;5897;42.640;23.310;2023-12-20T11:25:52;93516.97;;;15.08;44.03
11682;BME280;5897;42.640;23.310;2023-12-20T11:28:21;93512.97;;;15.18;44.51
11682;BME280;5897;42.640;23.310;2023-12-20T11:30:58;93494.78;;;15.24;44.00
11682;BME280;5897;42.640;23.310;2023-12-20T11:33:35;93468.75;;;15.61;43.09
11682;BME280;5897;42.640;23.310;2023-12-20T11:36:15;93493.38;;;15.81;41.99
11682;BME280;5897;42.640;23.310;2023-12-20T11:38:56;93471.03;;;15.77;41.30
11682;BME280;5897;42.640;23.310;2023-12-20T11:41:32;93479.94;;;16.06;41.79
11682;BME280;5897;42.640;23.310;2023-12-20T11:43:59;93460.69;;;16.10;41.22
11682;BME280;5897;42.640;23.310;2023-12-20T11:46:36;93480.47;;;16.54;39.91
11682;BME280;5897;42.640;23.310;2023-12-20T11:49:05;93467.38;;;15.94;40.67
11682;BME280;5897;42.640;23.310;2023-12-20T11:51:32;93460.97;;;15.83;41.94
11682;BME280;5897;42.640;23.310;2023-12-20T11:54:05;93457.66;;;16.22;41.24
11682;BME280;5897;42.640;23.310;2023-12-20T11:56:35;93441.31;;;16.57;39.60
11682;BME280;5897;42.640;23.310;2023-12-20T11:59:03;93438.06;;;16.53;41.20
11682;BME280;5897;42.640;23.310;2023-12-20T12:01:36;93426.50;;;15.94;40.47
11682;BME280;5897;42.640;23.310;2023-12-20T12:04:07;93398.84;;;15.67;41.84
11682;BME280;5897;42.640;23.310;2023-12-20T12:06:37;93415.56;;;16.23;40.58
11682;BME280;5897;42.640;23.310;2023-12-20T12:09:04;93422.00;;;16.40;40.32
11682;BME280;5897;42.640;23.310;2023-12-20T12:11:36;93429.94;;;16.38;43.68
11682;BME280;5897;42.640;23.310;2023-12-20T12:14:02;93417.41;;;16.66;40.53
11682;BME280;5897;42.640;23.310;2023-12-20T12:16:37;93405.72;;;16.86;39.81
11682;BME280;5897;42.640;23.310;2023-12-20T12:19:06;93406.28;;;16.90;39.21
11682;BME280;5897;42.640;23.310;2023-12-20T12:21:33;93404.09;;;16.94;39.31
11682;BME280;5897;42.640;23.310;2023-12-20T12:24:07;93404.38;;;16.76;39.82
11682;BME280;5897;42.640;23.310;2023-12-20T12:26:33;93405.72;;;16.46;40.54
11682;BME280;5897;42.640;23.310;2023-12-20T12:29:00;93398.31;;;16.66;40.26
11682;BME280;5897;42.640;23.310;2023-12-20T12:31:26;93391.13;;;16.69;40.50
11682;BME280;5897;42.640;23.310;2023-12-20T12:33:55;93396.56;;;16.83;39.51
11682;BME280;5897;42.640;23.310;2023-12-20T12:36:22;93383.91;;;17.06;39.32
11682;BME280;5897;42.640;23.310;2023-12-20T12:38:49;93391.34;;;16.85;40.17
11682;BME280;5897;42.640;23.310;2023-12-20T12:41:16;93385.13;;;17.05;39.29
11682;BME280;5897;42.640;23.310;2023-12-20T12:43:42;93392.22;;;16.97;39.70
11682;BME280;5897;42.640;23.310;2023-12-20T12:46:09;93391.56;;;16.82;39.78
11682;BME280;5897;42.640;23.310;2023-12-20T12:48:36;93386.25;;;16.73;40.94
11682;BME280;5897;42.640;23.310;2023-12-20T12:51:04;93391.56;;;16.62;40.84
11682;BME280;5897;42.640;23.310;2023-12-20T12:53:30;93389.25;;;16.06;42.37
11682;BME280;5897;42.640;23.310;2023-12-20T12:55:56;93382.78;;;15.69;42.98
11682;BME280;5897;42.640;23.310;2023-12-20T12:58:28;93376.31;;;15.52;44.31
11682;BME280;5897;42.640;23.310;2023-12-20T13:00:54;93387.81;;;15.18;44.74
11682;BME280;5897;42.640;23.310;2023-12-20T13:03:21;93369.09;;;14.44;46.47
11682;BME280;5897;42.640;23.310;2023-12-20T13:05:47;93383.19;;;14.01;48.61
11682;BME280;5897;42.640;23.310;2023-12-20T13:08:19;93382.13;;;13.66;49.56
11682;BME280;5897;42.640;23.310;2023-12-20T13:10:47;93379.16;;;13.04;51.17
11682;BME280;5897;42.640;23.310;2023-12-20T13:13:17;93358.38;;;12.47;53.09
11682;BME280;5897;42.640;23.310;2023-12-20T13:15:51;93381.50;;;12.03;55.28